sensor_id;sensor_type;location;lat;lon;timestamp;pressure;altitude;pressure_sealevel;temperature;humidity
27334;BME280;14817;57.104;-2.094;2022-11-25T00:01:15;98181.56;;;7.44;96.01
27334;BME280;14817;57.104;-2.094;2022-11-25T00:03:44;98175.22;;;7.45;95.46
27334;BME280;14817;57.104;-2.094;2022-11-25T00:06:16;98169.50;;;7.48;96.07
27334;BME280;14817;57.104;-2.094;2022-11-25T00:08:44;98172.28;;;7.40;95.97
27334;BME280;14817;57.104;-2.094;2022-11-25T00:11:13;98173.13;;;7.41;96.72
27334;BME280;14817;57.104;-2.094;2022-11-25T00:13:41;98168.25;;;7.44;96.71
27334;BME280;14817;57.104;-2.094;2022-11-25T00:16:13;98172.75;;;7.44;95.89
27334;BME280;14817;57.104;-2.094;2022-11-25T00:18:45;98186.25;;;7.42;96.21
27334;BME280;14817;57.104;-2.094;2022-11-25T00:21:15;98185.25;;;7.43;95.49
27334;BME280;14817;57.104;-2.094;2022-11-25T00:23:43;98204.25;;;7.40;95.10
27334;BME280;14817;57.104;-2.094;2022-11-25T00:26:14;98208.75;;;7.40;95.90
27334;BME280;14817;57.104;-2.094;2022-11-25T00:28:43;98214.91;;;7.40;95.40
27334;BME280;14817;57.104;-2.094;2022-11-25T00:31:23;98221.72;;;7.43;95.12
27334;BME280;14817;57.104;-2.094;2022-11-25T00:33:50;98225.25;;;7.50;96.27
27334;BME280;14817;57.104;-2.094;2022-11-25T00:36:31;98241.41;;;7.48;95.46
27334;BME280;14817;57.104;-2.094;2022-11-25T00:39:01;98247.75;;;7.47;94.25
27334;BME280;14817;57.104;-2.094;2022-11-25T00:41:29;98224.78;;;7.46;95.12
27334;BME280;14817;57.104;-2.094;2022-11-25T00:44:16;98239.97;;;7.46;94.74
27334;BME280;14817;57.104;-2.094;2022-11-25T00:47:11;98246.84;;;7.40;94.57
27334;BME280;14817;57.104;-2.094;2022-11-25T00:49:46;98252.00;;;7.42;94.43
27334;BME280;14817;57.104;-2.094;2022-11-25T00:52:15;98263.09;;;7.45;94.95
27334;BME280;14817;57.104;-2.094;2022-11-25T00:54:43;98260.44;;;7.45;94.40
27334;BME280;14817;57.104;-2.094;2022-11-25T00:57:17;98276.59;;;7.44;95.34
27334;BME280;14817;57.104;-2.094;2022-11-25T00:59:45;98282.19;;;7.49;93.96
27334;BME280;14817;57.104;-2.094;2022-11-25T01:02:13;98271.53;;;7.49;94.72
27334;BME280;14817;57.104;-2.094;2022-11-25T01:04:42;98282.44;;;7.54;94.58
27334;BME280;14817;57.104;-2.094;2022-11-25T01:07:09;98291.66;;;7.51;95.67
27334;BME280;14817;57.104;-2.094;2022-11-25T01:09:36;98303.59;;;7.55;95.35
27334;BME280;14817;57.104;-2.094;2022-11-25T01:12:03;98302.44;;;7.65;95.07
27334;BME280;14817;57.104;-2.094;2022-11-25T01:14:30;98298.75;;;7.66;94.20
27334;BME280;14817;57.104;-2.094;2022-11-25T01:16:57;98296.72;;;7.68;94.89
27334;BME280;14817;57.104;-2.094;2022-11-25T01:19:24;98291.84;;;7.71;95.72
27334;BME280;14817;57.104;-2.094;2022-11-25T01:21:51;98295.53;;;7.70;96.24
27334;BME280;14817;57.104;-2.094;2022-11-25T01:24:17;98297.00;;;7.73;96.30
27334;BME280;14817;57.104;-2.094;2022-11-25T01:26:45;98298.00;;;7.72;96.22
27334;BME280;14817;57.104;-2.094;2022-11-25T01:29:15;98299.03;;;7.71;97.13
27334;BME280;14817;57.104;-2.094;2022-11-25T01:31:43;98303.31;;;7.72;97.75
27334;BME280;14817;57.104;-2.094;2022-11-25T01:34:13;98320.97;;;7.73;97.71
27334;BME280;14817;57.104;-2.094;2022-11-25T01:36:40;98313.00;;;7.73;98.09
27334;BME280;14817;57.104;-2.094;2022-11-25T01:39:07;98319.59;;;7.77;96.83
27334;BME280;14817;57.104;-2.094;2022-11-25T01:41:34;98319.84;;;7.82;97.26
27334;BME280;14817;57.104;-2.094;2022-11-25T01:44:13;98322.56;;;7.89;97.50
27334;BME280;14817;57.104;-2.094;2022-11-25T01:51:59;98319.53;;;7.92;97.53
27334;BME280;14817;57.104;-2.094;2022-11-25T01:54:32;98318.69;;;7.91;97.10
27334;BME280;14817;57.104;-2.094;2022-11-25T01:57:05;98318.06;;;7.89;97.57
27334;BME280;14817;57.104;-2.094;2022-11-25T01:59:37;98321.19;;;7.93;98.03
27334;BME280;14817;57.104;-2.094;2022-11-25T02:02:05;98324.66;;;7.93;97.70
27334;BME280;14817;57.104;-2.094;2022-11-25T02:04:34;98324.47;;;7.95;98.49
27334;BME280;14817;57.104;-2.094;2022-11-25T02:07:09;98330.13;;;7.85;96.33
27334;BME280;14817;57.104;-2.094;2022-11-25T02:09:38;98314.91;;;7.79;94.93
27334;BME280;14817;57.104;-2.094;2022-11-25T02:12:07;98320.97;;;7.73;94.90
27334;BME280;14817;57.104;-2.094;2022-11-25T02:14:34;98318.88;;;7.68;95.23
27334;BME280;14817;57.104;-2.094;2022-11-25T02:17:02;98315.13;;;7.63;94.47
27334;BME280;14817;57.104;-2.094;2022-11-25T02:22:20;98328.44;;;7.63;94.02
27334;BME280;14817;57.104;-2.094;2022-11-25T02:24:54;98328.84;;;7.60;94.43
27334;BME280;14817;57.104;-2.094;2022-11-25T02:27:23;98328.38;;;7.56;94.89
27334;BME280;14817;57.104;-2.094;2022-11-25T02:29:50;98346.56;;;7.52;94.50
27334;BME280;14817;57.104;-2.094;2022-11-25T02:32:22;98353.09;;;7.50;94.70
27334;BME280;14817;57.104;-2.094;2022-11-25T02:34:49;98351.72;;;7.39;94.42
27334;BME280;14817;57.104;-2.094;2022-11-25T02:37:20;98361.91;;;7.35;94.93
27334;BME280;14817;57.104;-2.094;2022-11-25T02:39:48;98381.75;;;7.33;95.45
27334;BME280;14817;57.104;-2.094;2022-11-25T02:42:19;98397.09;;;7.31;94.92
27334;BME280;14817;57.104;-2.094;2022-11-25T02:44:47;98401.94;;;7.27;94.51
27334;BME280;14817;57.104;-2.094;2022-11-25T02:47:15;98409.28;;;7.25;95.17
27334;BME280;14817;57.104;-2.094;2022-11-25T02:49:44;98426.44;;;7.23;94.91
27334;BME280;14817;57.104;-2.094;2022-11-25T02:52:11;98435.63;;;7.20;95.74
27334;BME280;14817;57.104;-2.094;2022-11-25T02:54:40;98440.97;;;7.20;95.85
27334;BME280;14817;57.104;-2.094;2022-11-25T02:57:07;98439.13;;;7.21;96.25
27334;BME280;14817;57.104;-2.094;2022-11-25T02:59:34;98447.94;;;7.21;96.76
27334;BME280;14817;57.104;-2.094;2022-11-25T03:02:01;98452.63;;;7.19;97.64
27334;BME280;14817;57.104;-2.094;2022-11-25T03:04:28;98457.09;;;7.19;97.42
27334;BME280;14817;57.104;-2.094;2022-11-25T03:06:54;98465.94;;;7.19;97.97
27334;BME280;14817;57.104;-2.094;2022-11-25T03:09:23;98475.09;;;7.16;98.02
27334;BME280;14817;57.104;-2.094;2022-11-25T03:11:49;98491.91;;;7.17;98.40
27334;BME280;14817;57.104;-2.094;2022-11-25T03:14:35;98482.25;;;7.16;98.39
27334;BME280;14817;57.104;-2.094;2022-11-25T03:17:02;98499.06;;;7.16;97.92
27334;BME280;14817;57.104;-2.094;2022-11-25T03:19:29;98500.06;;;7.15;98.67
27334;BME280;14817;57.104;-2.094;2022-11-25T03:21:56;98506.69;;;7.20;97.68
27334;BME280;14817;57.104;-2.094;2022-11-25T03:24:22;98497.88;;;7.19;97.89
27334;BME280;14817;57.104;-2.094;2022-11-25T03:26:49;98503.66;;;7.23;98.15
27334;BME280;14817;57.104;-2.094;2022-11-25T03:29:16;98522.41;;;7.29;97.65
27334;BME280;14817;57.104;-2.094;2022-11-25T03:31:43;98514.72;;;7.34;97.03
27334;BME280;14817;57.104;-2.094;2022-11-25T03:34:11;98517.16;;;7.36;97.46
27334;BME280;14817;57.104;-2.094;2022-11-25T03:36:38;98527.38;;;7.32;97.02
27334;BME280;14817;57.104;-2.094;2022-11-25T03:39:06;98525.16;;;7.36;97.37
27334;BME280;14817;57.104;-2.094;2022-11-25T03:41:35;98526.00;;;7.36;97.38
27334;BME280;14817;57.104;-2.094;2022-11-25T03:44:02;98530.84;;;7.33;97.75
27334;BME280;14817;57.104;-2.094;2022-11-25T03:46:29;98548.56;;;7.26;97.57
27334;BME280;14817;57.104;-2.094;2022-11-25T03:48:56;98547.28;;;7.22;96.94
27334;BME280;14817;57.104;-2.094;2022-11-25T03:51:23;98556.44;;;7.19;97.16
27334;BME280;14817;57.104;-2.094;2022-11-25T03:53:51;98561.94;;;7.18;96.92
27334;BME280;14817;57.104;-2.094;2022-11-25T03:56:20;98550.34;;;7.10;97.36
27334;BME280;14817;57.104;-2.094;2022-11-25T03:58:46;98557.50;;;7.10;97.77
27334;BME280;14817;57.104;-2.094;2022-11-25T04:01:14;98572.16;;;7.06;97.99
27334;BME280;14817;57.104;-2.094;2022-11-25T04:03:43;98575.53;;;7.00;97.36
27334;BME280;14817;57.104;-2.094;2022-11-25T04:06:10;98572.22;;;6.98;97.40
27334;BME280;14817;57.104;-2.094;2022-11-25T04:08:38;98568.63;;;6.90;97.67
27334;BME280;14817;57.104;-2.094;2022-11-25T04:11:06;98572.47;;;6.88;98.16
27334;BME280;14817;57.104;-2.094;2022-11-25T04:13:38;98569.50;;;6.83;97.25
27334;BME280;14817;57.104;-2.094;2022-11-25T04:16:22;98583.66;;;6.83;97.39
27334;BME280;14817;57.104;-2.094;2022-11-25T04:18:51;98605.47;;;6.79;97.89
27334;BME280;14817;57.104;-2.094;2022-11-25T04:21:18;98609.47;;;6.74;97.87
27334;BME280;14817;57.104;-2.094;2022-11-25T04:23:45;98609.66;;;6.73;97.74
27334;BME280;14817;57.104;-2.094;2022-11-25T04:26:13;98608.63;;;6.74;98.09
27334;BME280;14817;57.104;-2.094;2022-11-25T04:28:40;98624.13;;;6.70;97.94
27334;BME280;14817;57.104;-2.094;2022-11-25T04:31:07;98624.66;;;6.66;97.69
27334;BME280;14817;57.104;-2.094;2022-11-25T04:33:38;98621.50;;;6.62;98.37
27334;BME280;14817;57.104;-2.094;2022-11-25T04:36:06;98630.84;;;6.58;98.08
27334;BME280;14817;57.104;-2.094;2022-11-25T04:38:33;98641.34;;;6.51;98.54
27334;BME280;14817;57.104;-2.094;2022-11-25T04:41:01;98640.84;;;6.48;97.73
27334;BME280;14817;57.104;-2.094;2022-11-25T04:43:33;98645.50;;;6.46;97.91
27334;BME280;14817;57.104;-2.094;2022-11-25T04:46:04;98659.81;;;6.45;98.05
27334;BME280;14817;57.104;-2.094;2022-11-25T04:48:43;98661.16;;;6.41;98.33
27334;BME280;14817;57.104;-2.094;2022-11-25T04:51:09;98667.97;;;6.35;98.41
27334;BME280;14817;57.104;-2.094;2022-11-25T04:53:37;98668.34;;;6.32;98.89
27334;BME280;14817;57.104;-2.094;2022-11-25T04:56:06;98686.59;;;6.27;99.42
27334;BME280;14817;57.104;-2.094;2022-11-25T04:58:41;98702.09;;;6.23;99.47
27334;BME280;14817;57.104;-2.094;2022-11-25T05:01:28;98695.44;;;6.19;100.00
27334;BME280;14817;57.104;-2.094;2022-11-25T05:04:04;98702.09;;;6.15;99.64
27334;BME280;14817;57.104;-2.094;2022-11-25T05:06:32;98703.75;;;6.08;100.00
27334;BME280;14817;57.104;-2.094;2022-11-25T05:08:59;98710.91;;;6.07;100.00
27334;BME280;14817;57.104;-2.094;2022-11-25T05:11:27;98708.25;;;6.07;100.00
27334;BME280;14817;57.104;-2.094;2022-11-25T05:13:53;98721.03;;;6.04;100.00
27334;BME280;14817;57.104;-2.094;2022-11-25T05:16:21;98727.03;;;5.98;100.00
27334;BME280;14817;57.104;-2.094;2022-11-25T05:18:48;98735.00;;;5.98;100.00
27334;BME280;14817;57.104;-2.094;2022-11-25T05:21:15;98724.16;;;5.91;100.00
27334;BME280;14817;57.104;-2.094;2022-11-25T05:23:43;98736.63;;;5.90;100.00
27334;BME280;14817;57.104;-2.094;2022-11-25T05:26:10;98733.97;;;5.90;100.00
27334;BME280;14817;57.104;-2.094;2022-11-25T05:28:49;98737.28;;;5.92;100.00
27334;BME280;14817;57.104;-2.094;2022-11-25T05:31:17;98746.28;;;5.91;100.00
27334;BME280;14817;57.104;-2.094;2022-11-25T05:33:47;98750.72;;;5.91;100.00
27334;BME280;14817;57.104;-2.094;2022-11-25T05:36:16;98760.22;;;5.93;100.00
27334;BME280;14817;57.104;-2.094;2022-11-25T05:38:45;98768.19;;;5.93;100.00
27334;BME280;14817;57.104;-2.094;2022-11-25T05:41:18;98770.19;;;5.91;100.00
27334;BME280;14817;57.104;-2.094;2022-11-25T05:43:45;98768.84;;;5.87;100.00
27334;BME280;14817;57.104;-2.094;2022-11-25T05:49:16;98772.53;;;5.95;100.00
27334;BME280;14817;57.104;-2.094;2022-11-25T05:51:44;98763.22;;;5.99;100.00
27334;BME280;14817;57.104;-2.094;2022-11-25T05:54:14;98768.03;;;5.95;100.00
27334;BME280;14817;57.104;-2.094;2022-11-25T05:56:41;98770.84;;;5.93;100.00
27334;BME280;14817;57.104;-2.094;2022-11-25T05:59:37;98778.47;;;5.88;100.00
27334;BME280;14817;57.104;-2.094;2022-11-25T06:02:13;98785.47;;;5.89;100.00
27334;BME280;14817;57.104;-2.094;2022-11-25T06:04:39;98799.22;;;5.93;100.00
27334;BME280;14817;57.104;-2.094;2022-11-25T06:07:07;98809.53;;;5.88;100.00
27334;BME280;14817;57.104;-2.094;2022-11-25T06:09:34;98807.03;;;5.86;100.00
27334;BME280;14817;57.104;-2.094;2022-11-25T06:12:02;98807.38;;;5.83;100.00
27334;BME280;14817;57.104;-2.094;2022-11-25T06:14:30;98817.31;;;5.81;100.00
27334;BME280;14817;57.104;-2.094;2022-11-25T06:16:57;98829.94;;;5.79;100.00
27334;BME280;14817;57.104;-2.094;2022-11-25T06:19:30;98829.25;;;5.77;100.00
27334;BME280;14817;57.104;-2.094;2022-11-25T06:21:57;98826.47;;;5.79;100.00
27334;BME280;14817;57.104;-2.094;2022-11-25T06:24:25;98827.63;;;5.76;100.00
27334;BME280;14817;57.104;-2.094;2022-11-25T06:26:57;98835.59;;;5.76;100.00
27334;BME280;14817;57.104;-2.094;2022-11-25T06:29:26;98849.66;;;5.68;100.00
27334;BME280;14817;57.104;-2.094;2022-11-25T06:31:53;98859.78;;;5.65;100.00
27334;BME280;14817;57.104;-2.094;2022-11-25T06:34:38;98864.41;;;5.63;100.00
27334;BME280;14817;57.104;-2.094;2022-11-25T06:37:23;98884.00;;;5.62;100.00
27334;BME280;14817;57.104;-2.094;2022-11-25T06:39:50;98885.16;;;5.59;100.00
27334;BME280;14817;57.104;-2.094;2022-11-25T06:42:16;98889.63;;;5.50;100.00
27334;BME280;14817;57.104;-2.094;2022-11-25T06:44:43;98890.06;;;5.46;100.00
27334;BME280;14817;57.104;-2.094;2022-11-25T06:47:10;98896.53;;;5.43;100.00
27334;BME280;14817;57.104;-2.094;2022-11-25T06:49:37;98893.53;;;5.38;100.00
27334;BME280;14817;57.104;-2.094;2022-11-25T06:52:03;98890.53;;;5.33;100.00
27334;BME280;14817;57.104;-2.094;2022-11-25T06:54:31;98893.81;;;5.27;100.00
27334;BME280;14817;57.104;-2.094;2022-11-25T06:56:58;98894.47;;;5.21;100.00
27334;BME280;14817;57.104;-2.094;2022-11-25T06:59:26;98897.78;;;5.23;100.00
27334;BME280;14817;57.104;-2.094;2022-11-25T07:01:52;98904.06;;;5.22;100.00
27334;BME280;14817;57.104;-2.094;2022-11-25T07:04:19;98907.06;;;5.27;100.00
27334;BME280;14817;57.104;-2.094;2022-11-25T07:06:48;98918.06;;;5.32;100.00
27334;BME280;14817;57.104;-2.094;2022-11-25T07:09:15;98916.25;;;5.32;100.00
27334;BME280;14817;57.104;-2.094;2022-11-25T07:11:42;98926.56;;;5.36;100.00
27334;BME280;14817;57.104;-2.094;2022-11-25T07:14:12;98935.38;;;5.44;100.00
27334;BME280;14817;57.104;-2.094;2022-11-25T07:16:40;98947.03;;;5.51;100.00
27334;BME280;14817;57.104;-2.094;2022-11-25T07:19:14;98961.94;;;5.52;100.00
27334;BME280;14817;57.104;-2.094;2022-11-25T07:21:42;98954.94;;;5.43;100.00
27334;BME280;14817;57.104;-2.094;2022-11-25T07:24:14;98969.84;;;5.36;100.00
27334;BME280;14817;57.104;-2.094;2022-11-25T07:26:42;98987.38;;;5.29;100.00
27334;BME280;14817;57.104;-2.094;2022-11-25T07:29:12;98994.03;;;5.25;100.00
27334;BME280;14817;57.104;-2.094;2022-11-25T07:32:00;99000.75;;;5.19;100.00
27334;BME280;14817;57.104;-2.094;2022-11-25T07:34:34;99001.25;;;5.15;100.00
27334;BME280;14817;57.104;-2.094;2022-11-25T07:37:01;99001.72;;;5.10;100.00
27334;BME280;14817;57.104;-2.094;2022-11-25T07:39:28;98995.53;;;5.09;100.00
27334;BME280;14817;57.104;-2.094;2022-11-25T07:41:54;99002.69;;;5.09;100.00
27334;BME280;14817;57.104;-2.094;2022-11-25T07:44:21;99002.47;;;5.02;100.00
27334;BME280;14817;57.104;-2.094;2022-11-25T07:46:51;99007.41;;;4.97;100.00
27334;BME280;14817;57.104;-2.094;2022-11-25T07:49:20;99020.69;;;4.97;100.00
27334;BME280;14817;57.104;-2.094;2022-11-25T07:51:51;99024.44;;;4.95;100.00
27334;BME280;14817;57.104;-2.094;2022-11-25T07:54:19;99035.91;;;4.95;100.00
27334;BME280;14817;57.104;-2.094;2022-11-25T07:56:47;99039.25;;;4.97;100.00
27334;BME280;14817;57.104;-2.094;2022-11-25T07:59:17;99044.25;;;5.00;100.00
27334;BME280;14817;57.104;-2.094;2022-11-25T08:01:45;99044.91;;;5.02;100.00
27334;BME280;14817;57.104;-2.094;2022-11-25T08:04:12;99055.81;;;4.99;100.00
27334;BME280;14817;57.104;-2.094;2022-11-25T08:06:47;99065.25;;;4.94;100.00
27334;BME280;14817;57.104;-2.094;2022-11-25T08:09:16;99049.94;;;4.87;100.00
27334;BME280;14817;57.104;-2.094;2022-11-25T08:11:47;99054.00;;;4.82;100.00
27334;BME280;14817;57.104;-2.094;2022-11-25T08:14:15;99051.97;;;4.76;100.00
27334;BME280;14817;57.104;-2.094;2022-11-25T08:16:42;99049.16;;;4.77;100.00
27334;BME280;14817;57.104;-2.094;2022-11-25T08:19:13;99048.03;;;4.80;100.00
27334;BME280;14817;57.104;-2.094;2022-11-25T08:21:41;99053.88;;;4.83;100.00
27334;BME280;14817;57.104;-2.094;2022-11-25T08:24:16;99056.75;;;4.90;100.00
27334;BME280;14817;57.104;-2.094;2022-11-25T08:26:44;99061.22;;;4.89;100.00
27334;BME280;14817;57.104;-2.094;2022-11-25T08:29:13;99065.69;;;4.89;100.00
27334;BME280;14817;57.104;-2.094;2022-11-25T08:31:40;99061.69;;;4.85;100.00
27334;BME280;14817;57.104;-2.094;2022-11-25T08:34:15;99066.00;;;4.86;100.00
27334;BME280;14817;57.104;-2.094;2022-11-25T08:36:43;99067.00;;;4.85;100.00
27334;BME280;14817;57.104;-2.094;2022-11-25T08:39:14;99081.84;;;4.96;100.00
27334;BME280;14817;57.104;-2.094;2022-11-25T08:42:02;99091.81;;;4.84;100.00
27334;BME280;14817;57.104;-2.094;2022-11-25T08:44:29;99093.19;;;4.88;100.00
27334;BME280;14817;57.104;-2.094;2022-11-25T08:46:56;99092.53;;;5.04;100.00
27334;BME280;14817;57.104;-2.094;2022-11-25T08:49:23;99092.78;;;5.37;100.00
27334;BME280;14817;57.104;-2.094;2022-11-25T08:51:52;99110.56;;;5.62;99.29
27334;BME280;14817;57.104;-2.094;2022-11-25T08:54:19;99129.84;;;5.90;97.38
27334;BME280;14817;57.104;-2.094;2022-11-25T08:56:46;99134.94;;;6.02;95.62
27334;BME280;14817;57.104;-2.094;2022-11-25T08:59:12;99135.81;;;6.10;95.08
27334;BME280;14817;57.104;-2.094;2022-11-25T09:01:39;99120.41;;;6.22;94.00
27334;BME280;14817;57.104;-2.094;2022-11-25T09:04:06;99121.31;;;6.05;94.90
27334;BME280;14817;57.104;-2.094;2022-11-25T09:06:33;99116.88;;;6.13;93.97
27334;BME280;14817;57.104;-2.094;2022-11-25T09:08:59;99116.56;;;6.17;93.69
27334;BME280;14817;57.104;-2.094;2022-11-25T09:11:27;99120.78;;;6.36;93.36
27334;BME280;14817;57.104;-2.094;2022-11-25T09:13:54;99139.00;;;6.22;93.73
27334;BME280;14817;57.104;-2.094;2022-11-25T09:16:21;99130.66;;;6.51;92.98
27334;BME280;14817;57.104;-2.094;2022-11-25T09:18:48;99136.44;;;6.39;92.84
27334;BME280;14817;57.104;-2.094;2022-11-25T09:21:21;99138.13;;;6.48;93.70
27334;BME280;14817;57.104;-2.094;2022-11-25T09:23:49;99146.81;;;6.58;93.53
27334;BME280;14817;57.104;-2.094;2022-11-25T09:26:27;99161.31;;;6.72;93.14
27334;BME280;14817;57.104;-2.094;2022-11-25T09:28:55;99160.19;;;6.83;92.06
27334;BME280;14817;57.104;-2.094;2022-11-25T09:31:22;99161.88;;;6.84;91.23
27334;BME280;14817;57.104;-2.094;2022-11-25T09:33:50;99170.28;;;7.22;91.12
27334;BME280;14817;57.104;-2.094;2022-11-25T09:36:18;99168.09;;;7.25;91.49
27334;BME280;14817;57.104;-2.094;2022-11-25T09:38:45;99170.13;;;7.48;91.39
27334;BME280;14817;57.104;-2.094;2022-11-25T09:44:37;99176.78;;;7.60;89.78
27334;BME280;14817;57.104;-2.094;2022-11-25T09:55:44;99200.94;;;7.83;90.17
27334;BME280;14817;57.104;-2.094;2022-11-25T09:58:24;99204.91;;;7.95;89.75
27334;BME280;14817;57.104;-2.094;2022-11-25T10:00:54;99214.06;;;8.09;88.81
27334;BME280;14817;57.104;-2.094;2022-11-25T10:03:38;99200.53;;;8.27;88.52
27334;BME280;14817;57.104;-2.094;2022-11-25T10:06:20;99192.53;;;8.44;88.94
27334;BME280;14817;57.104;-2.094;2022-11-25T10:08:52;99188.00;;;8.36;88.93
27334;BME280;14817;57.104;-2.094;2022-11-25T10:14:05;99190.53;;;8.46;89.39
27334;BME280;14817;57.104;-2.094;2022-11-25T10:19:23;99187.94;;;8.05;90.75
27334;BME280;14817;57.104;-2.094;2022-11-25T10:21:51;99183.94;;;8.01;91.70
27334;BME280;14817;57.104;-2.094;2022-11-25T10:24:19;99171.56;;;8.16;92.00
27334;BME280;14817;57.104;-2.094;2022-11-25T10:26:59;99181.84;;;8.35;91.48
27334;BME280;14817;57.104;-2.094;2022-11-25T10:29:31;99202.78;;;8.71;90.09
27334;BME280;14817;57.104;-2.094;2022-11-25T10:32:16;99217.50;;;8.59;90.66
27334;BME280;14817;57.104;-2.094;2022-11-25T10:34:50;99206.66;;;8.52;90.54
27334;BME280;14817;57.104;-2.094;2022-11-25T10:37:32;99208.53;;;8.52;89.99
27334;BME280;14817;57.104;-2.094;2022-11-25T10:40:02;99215.88;;;8.25;91.23
27334;BME280;14817;57.104;-2.094;2022-11-25T10:42:29;99222.09;;;7.93;91.50
27334;BME280;14817;57.104;-2.094;2022-11-25T10:44:57;99237.22;;;7.68;92.30
27334;BME280;14817;57.104;-2.094;2022-11-25T10:47:50;99229.22;;;7.68;92.83
27334;BME280;14817;57.104;-2.094;2022-11-25T10:53:12;99210.25;;;7.54;93.27
27334;BME280;14817;57.104;-2.094;2022-11-25T10:55:56;99191.75;;;7.61;92.93
27334;BME280;14817;57.104;-2.094;2022-11-25T10:58:37;99207.59;;;7.54;93.42
27334;BME280;14817;57.104;-2.094;2022-11-25T11:03:50;99222.56;;;7.47;94.50
27334;BME280;14817;57.104;-2.094;2022-11-25T11:06:31;99215.09;;;7.43;94.61
27334;BME280;14817;57.104;-2.094;2022-11-25T11:09:00;99208.41;;;7.39;94.58
27334;BME280;14817;57.104;-2.094;2022-11-25T11:11:28;99202.56;;;7.35;95.61
27334;BME280;14817;57.104;-2.094;2022-11-25T11:16:40;99198.72;;;7.29;96.14
27334;BME280;14817;57.104;-2.094;2022-11-25T11:19:23;99210.88;;;7.24;95.91
27334;BME280;14817;57.104;-2.094;2022-11-25T11:21:50;99208.88;;;7.18;95.86
27334;BME280;14817;57.104;-2.094;2022-11-25T11:24:31;99224.16;;;7.15;96.54
27334;BME280;14817;57.104;-2.094;2022-11-25T11:29:30;99216.34;;;7.14;97.23
27334;BME280;14817;57.104;-2.094;2022-11-25T11:31:59;99210.19;;;7.13;96.71
27334;BME280;14817;57.104;-2.094;2022-11-25T11:37:35;99248.81;;;7.18;96.92
27334;BME280;14817;57.104;-2.094;2022-11-25T11:45:29;99228.34;;;7.18;96.47
27334;BME280;14817;57.104;-2.094;2022-11-25T11:56:17;99239.22;;;7.41;95.72
27334;BME280;14817;57.104;-2.094;2022-11-25T12:02:18;99241.88;;;7.66;95.18
27334;BME280;14817;57.104;-2.094;2022-11-25T12:10:38;99234.56;;;7.68;94.86
27334;BME280;14817;57.104;-2.094;2022-11-25T12:13:14;99226.75;;;7.66;95.18
27334;BME280;14817;57.104;-2.094;2022-11-25T12:16:00;99248.25;;;7.73;94.47
27334;BME280;14817;57.104;-2.094;2022-11-25T12:18:48;99239.91;;;7.84;93.90
27334;BME280;14817;57.104;-2.094;2022-11-25T12:21:57;99241.25;;;7.88;93.73
27334;BME280;14817;57.104;-2.094;2022-11-25T12:24:26;99265.56;;;7.93;94.03
27334;BME280;14817;57.104;-2.094;2022-11-25T12:29:38;99281.41;;;7.95;93.42
27334;BME280;14817;57.104;-2.094;2022-11-25T12:35:39;99275.06;;;7.96;93.33
27334;BME280;14817;57.104;-2.094;2022-11-25T12:38:22;99289.38;;;7.95;93.79
27334;BME280;14817;57.104;-2.094;2022-11-25T12:48:37;99301.41;;;7.99;93.55
27334;BME280;14817;57.104;-2.094;2022-11-25T12:53:46;99301.41;;;8.07;92.33
27334;BME280;14817;57.104;-2.094;2022-11-25T12:56:35;99277.91;;;8.11;93.22
27334;BME280;14817;57.104;-2.094;2022-11-25T12:59:17;99263.91;;;8.09;92.72
27334;BME280;14817;57.104;-2.094;2022-11-25T13:02:45;99259.56;;;8.08;92.22
27334;BME280;14817;57.104;-2.094;2022-11-25T13:05:39;99265.56;;;8.10;92.18
27334;BME280;14817;57.104;-2.094;2022-11-25T13:13:54;99331.22;;;8.27;91.60
27334;BME280;14817;57.104;-2.094;2022-11-25T13:16:26;99335.56;;;8.28;90.98
27334;BME280;14817;57.104;-2.094;2022-11-25T13:18:54;99345.22;;;8.29;90.49
27334;BME280;14817;57.104;-2.094;2022-11-25T13:21:23;99353.06;;;8.31;91.26
27334;BME280;14817;57.104;-2.094;2022-11-25T13:23:56;99361.22;;;8.29;91.42
27334;BME280;14817;57.104;-2.094;2022-11-25T13:28:55;99364.41;;;8.25;91.42
27334;BME280;14817;57.104;-2.094;2022-11-25T13:31:33;99371.41;;;8.26;90.95
27334;BME280;14817;57.104;-2.094;2022-11-25T13:34:23;99375.25;;;8.31;90.64
27334;BME280;14817;57.104;-2.094;2022-11-25T13:36:55;99369.59;;;8.26;90.87
27334;BME280;14817;57.104;-2.094;2022-11-25T13:42:02;99367.72;;;8.18;91.27
27334;BME280;14817;57.104;-2.094;2022-11-25T13:44:33;99362.56;;;8.17;91.28
27334;BME280;14817;57.104;-2.094;2022-11-25T13:50:02;99378.38;;;8.10;90.97
27334;BME280;14817;57.104;-2.094;2022-11-25T13:52:36;99388.56;;;8.07;91.45
27334;BME280;14817;57.104;-2.094;2022-11-25T13:55:53;99389.88;;;8.03;91.44
27334;BME280;14817;57.104;-2.094;2022-11-25T14:00:58;99410.69;;;7.91;92.33
27334;BME280;14817;57.104;-2.094;2022-11-25T14:06:16;99406.00;;;7.85;92.21
27334;BME280;14817;57.104;-2.094;2022-11-25T14:11:51;99406.47;;;7.80;92.42
27334;BME280;14817;57.104;-2.094;2022-11-25T14:27:37;99429.28;;;7.66;93.73
27334;BME280;14817;57.104;-2.094;2022-11-25T14:30:07;99431.56;;;7.61;94.00
27334;BME280;14817;57.104;-2.094;2022-11-25T14:32:53;99453.06;;;7.60;93.58
27334;BME280;14817;57.104;-2.094;2022-11-25T14:35:31;99461.88;;;7.60;93.50
27334;BME280;14817;57.104;-2.094;2022-11-25T14:38:11;99455.34;;;7.54;94.13
27334;BME280;14817;57.104;-2.094;2022-11-25T14:41:50;99466.50;;;7.50;94.63
27334;BME280;14817;57.104;-2.094;2022-11-25T14:44:05;99463.63;;;7.43;95.58
27334;BME280;14817;57.104;-2.094;2022-11-25T14:46:52;99463.09;;;7.40;95.41
27334;BME280;14817;57.104;-2.094;2022-11-25T14:49:19;99467.25;;;7.34;94.69
27334;BME280;14817;57.104;-2.094;2022-11-25T14:52:07;99479.03;;;7.31;95.45
27334;BME280;14817;57.104;-2.094;2022-11-25T14:54:42;99488.50;;;7.26;94.88
27334;BME280;14817;57.104;-2.094;2022-11-25T14:57:10;99492.97;;;7.25;94.12
27334;BME280;14817;57.104;-2.094;2022-11-25T14:59:37;99500.44;;;7.22;94.50
27334;BME280;14817;57.104;-2.094;2022-11-25T15:05:33;99508.59;;;7.20;93.60
27334;BME280;14817;57.104;-2.094;2022-11-25T15:10:37;99520.38;;;7.18;92.37
27334;BME280;14817;57.104;-2.094;2022-11-25T15:13:18;99520.38;;;7.18;92.77
27334;BME280;14817;57.104;-2.094;2022-11-25T15:15:49;99523.19;;;7.16;93.62
27334;BME280;14817;57.104;-2.094;2022-11-25T15:18:21;99532.81;;;7.09;94.21
27334;BME280;14817;57.104;-2.094;2022-11-25T15:20:52;99537.91;;;7.02;95.66
27334;BME280;14817;57.104;-2.094;2022-11-25T15:23:27;99536.00;;;6.94;95.63